sensor_id;sensor_type;location;lat;lon;timestamp;pressure;altitude;pressure_sealevel;temperature;humidity
62510;BME280;48558;48.242;11.654;2022-08-01T00:02:55;96189.28;;;19.31;79.37
62510;BME280;48558;48.242;11.654;2022-08-01T00:07:58;96182.28;;;19.37;77.40
62510;BME280;48558;48.242;11.654;2022-08-01T00:13:02;96175.88;;;19.24;78.27
62510;BME280;48558;48.242;11.654;2022-08-01T00:18:05;96180.88;;;19.12;79.31
62510;BME280;48558;48.242;11.654;2022-08-01T00:23:08;96181.16;;;19.09;78.21
62510;BME280;48558;48.242;11.654;2022-08-01T00:28:12;96182.13;;;18.79;80.69
62510;BME280;48558;48.242;11.654;2022-08-01T00:33:16;96179.38;;;18.61;81.89
62510;BME280;48558;48.242;11.654;2022-08-01T00:38:19;96189.66;;;18.34;84.17
62510;BME280;48558;48.242;11.654;2022-08-01T00:43:22;96194.03;;;18.30;85.93
62510;BME280;48558;48.242;11.654;2022-08-01T00:48:25;96187.69;;;18.05;87.20
62510;BME280;48558;48.242;11.654;2022-08-01T00:53:29;96189.75;;;18.04;87.90
62510;BME280;48558;48.242;11.654;2022-08-01T00:58:53;96187.91;;;17.88;90.93
62510;BME280;48558;48.242;11.654;2022-08-01T01:03:57;96178.22;;;18.08;86.93
62510;BME280;48558;48.242;11.654;2022-08-01T01:14:33;96188.09;;;18.14;85.59
62510;BME280;48558;48.242;11.654;2022-08-01T01:19:46;96177.63;;;18.15;84.54
62510;BME280;48558;48.242;11.654;2022-08-01T01:25:09;96190.81;;;18.01;86.95
62510;BME280;48558;48.242;11.654;2022-08-01T01:30:23;96187.50;;;18.22;83.27
62510;BME280;48558;48.242;11.654;2022-08-01T01:35:34;96190.06;;;18.20;82.72
62510;BME280;48558;48.242;11.654;2022-08-01T01:40:39;96195.81;;;18.08;83.73
62510;BME280;48558;48.242;11.654;2022-08-01T01:45:45;96190.22;;;18.08;83.91
62510;BME280;48558;48.242;11.654;2022-08-01T01:50:59;96195.91;;;17.79;85.72
62510;BME280;48558;48.242;11.654;2022-08-01T01:56:03;96191.44;;;17.65;86.83
62510;BME280;48558;48.242;11.654;2022-08-01T02:01:08;96203.50;;;17.84;85.47
62510;BME280;48558;48.242;11.654;2022-08-01T02:06:16;96208.97;;;17.71;86.88
62510;BME280;48558;48.242;11.654;2022-08-01T02:11:20;96204.34;;;17.73;86.55
62510;BME280;48558;48.242;11.654;2022-08-01T02:16:29;96214.66;;;17.65;86.99
62510;BME280;48558;48.242;11.654;2022-08-01T02:21:39;96222.94;;;17.52;87.24
62510;BME280;48558;48.242;11.654;2022-08-01T02:26:47;96219.63;;;17.48;87.40
62510;BME280;48558;48.242;11.654;2022-08-01T02:31:54;96223.56;;;17.34;88.18
62510;BME280;48558;48.242;11.654;2022-08-01T02:37:00;96217.66;;;17.37;87.91
62510;BME280;48558;48.242;11.654;2022-08-01T02:42:06;96213.69;;;17.27;88.29
62510;BME280;48558;48.242;11.654;2022-08-01T02:47:10;96213.72;;;17.22;87.98
62510;BME280;48558;48.242;11.654;2022-08-01T02:52:17;96213.06;;;17.40;86.13
62510;BME280;48558;48.242;11.654;2022-08-01T02:57:21;96229.16;;;17.34;86.24
62510;BME280;48558;48.242;11.654;2022-08-01T03:02:30;96220.28;;;17.30;86.21
62510;BME280;48558;48.242;11.654;2022-08-01T03:07:35;96225.72;;;17.17;87.71
62510;BME280;48558;48.242;11.654;2022-08-01T03:12:42;96228.34;;;17.09;87.13
62510;BME280;48558;48.242;11.654;2022-08-01T03:17:49;96224.38;;;16.94;90.67
62510;BME280;48558;48.242;11.654;2022-08-01T03:22:57;96220.97;;;17.06;88.25
62510;BME280;48558;48.242;11.654;2022-08-01T03:28:04;96231.09;;;17.15;86.96
62510;BME280;48558;48.242;11.654;2022-08-01T03:33:09;96237.16;;;17.19;85.88
62510;BME280;48558;48.242;11.654;2022-08-01T03:38:22;96248.28;;;16.95;88.87
62510;BME280;48558;48.242;11.654;2022-08-01T03:43:32;96244.06;;;17.18;83.89
62510;BME280;48558;48.242;11.654;2022-08-01T03:48:44;96255.41;;;16.96;86.37
62510;BME280;48558;48.242;11.654;2022-08-01T03:53:51;96252.63;;;16.96;85.21
62510;BME280;48558;48.242;11.654;2022-08-01T03:58:56;96251.94;;;17.19;82.82
62510;BME280;48558;48.242;11.654;2022-08-01T04:04:00;96254.78;;;17.14;82.85
62510;BME280;48558;48.242;11.654;2022-08-01T04:09:07;96263.44;;;17.16;83.54
62510;BME280;48558;48.242;11.654;2022-08-01T04:14:17;96264.34;;;17.29;81.74
62510;BME280;48558;48.242;11.654;2022-08-01T04:19:23;96270.13;;;17.37;81.25
62510;BME280;48558;48.242;11.654;2022-08-01T04:24:27;96263.78;;;17.36;82.61
62510;BME280;48558;48.242;11.654;2022-08-01T04:29:32;96283.25;;;17.59;80.09
62510;BME280;48558;48.242;11.654;2022-08-01T04:34:46;96286.28;;;17.90;77.50
62510;BME280;48558;48.242;11.654;2022-08-01T04:39:52;96286.78;;;17.89;77.79
62510;BME280;48558;48.242;11.654;2022-08-01T04:44:58;96295.56;;;18.04;76.38
62510;BME280;48558;48.242;11.654;2022-08-01T04:50:05;96295.78;;;18.30;74.40
62510;BME280;48558;48.242;11.654;2022-08-01T04:55:10;96299.03;;;18.40;74.44
62510;BME280;48558;48.242;11.654;2022-08-01T05:00:14;96296.06;;;18.56;73.23
62510;BME280;48558;48.242;11.654;2022-08-01T05:05:20;96297.97;;;18.86;71.21
62510;BME280;48558;48.242;11.654;2022-08-01T05:10:24;96300.94;;;18.74;72.94
62510;BME280;48558;48.242;11.654;2022-08-01T05:15:27;96304.88;;;18.84;72.58
62510;BME280;48558;48.242;11.654;2022-08-01T05:20:30;96303.94;;;18.95;71.01
62510;BME280;48558;48.242;11.654;2022-08-01T05:25:34;96309.44;;;19.06;69.49
62510;BME280;48558;48.242;11.654;2022-08-01T05:31:00;96327.13;;;19.01;70.25
62510;BME280;48558;48.242;11.654;2022-08-01T05:36:04;96324.16;;;18.94;71.06
62510;BME280;48558;48.242;11.654;2022-08-01T05:41:07;96329.28;;;19.14;70.09
62510;BME280;48558;48.242;11.654;2022-08-01T05:46:10;96333.84;;;19.35;68.00
62510;BME280;48558;48.242;11.654;2022-08-01T05:51:16;96326.84;;;19.42;67.48
62510;BME280;48558;48.242;11.654;2022-08-01T05:56:20;96334.78;;;19.57;66.87
62510;BME280;48558;48.242;11.654;2022-08-01T06:01:23;96335.97;;;19.61;69.38
62510;BME280;48558;48.242;11.654;2022-08-01T06:06:27;96334.75;;;19.75;68.12
62510;BME280;48558;48.242;11.654;2022-08-01T06:11:30;96334.47;;;19.92;65.96
62510;BME280;48558;48.242;11.654;2022-08-01T06:16:33;96345.78;;;20.05;66.59
62510;BME280;48558;48.242;11.654;2022-08-01T06:21:36;96347.84;;;20.17;64.97
62510;BME280;48558;48.242;11.654;2022-08-01T06:26:40;96351.66;;;20.20;65.16
62510;BME280;48558;48.242;11.654;2022-08-01T06:31:43;96345.31;;;20.33;65.77
62510;BME280;48558;48.242;11.654;2022-08-01T06:36:46;96359.50;;;20.53;64.85
62510;BME280;48558;48.242;11.654;2022-08-01T06:41:49;96358.19;;;20.54;63.76
62510;BME280;48558;48.242;11.654;2022-08-01T06:46:53;96356.91;;;20.68;63.81
62510;BME280;48558;48.242;11.654;2022-08-01T06:51:56;96362.78;;;20.83;63.12
62510;BME280;48558;48.242;11.654;2022-08-01T06:56:59;96357.38;;;20.99;62.96
62510;BME280;48558;48.242;11.654;2022-08-01T07:02:05;96362.22;;;21.11;65.71
62510;BME280;48558;48.242;11.654;2022-08-01T07:07:12;96358.75;;;21.05;63.37
62510;BME280;48558;48.242;11.654;2022-08-01T07:12:19;96363.50;;;21.23;63.54
62510;BME280;48558;48.242;11.654;2022-08-01T07:17:31;96352.53;;;21.20;63.42
62510;BME280;48558;48.242;11.654;2022-08-01T07:23:14;96359.25;;;21.30;64.25
62510;BME280;48558;48.242;11.654;2022-08-01T07:28:23;96350.22;;;21.44;62.56
62510;BME280;48558;48.242;11.654;2022-08-01T07:33:46;96362.81;;;21.77;62.30
62510;BME280;48558;48.242;11.654;2022-08-01T08:33:31;96353.50;;;25.33;47.63
62510;BME280;48558;48.242;11.654;2022-08-01T08:46:17;96305.66;;;25.69;46.97
62510;BME280;48558;48.242;11.654;2022-08-01T09:12:18;96337.94;;;26.38;44.04
62510;BME280;48558;48.242;11.654;2022-08-01T09:17:22;96342.16;;;26.05;44.58
62510;BME280;48558;48.242;11.654;2022-08-01T09:22:32;96346.50;;;26.30;44.87
62510;BME280;48558;48.242;11.654;2022-08-01T09:27:37;96347.72;;;26.69;41.58
62510;BME280;48558;48.242;11.654;2022-08-01T09:57:37;96313.00;;;27.22;41.09
62510;BME280;48558;48.242;11.654;2022-08-01T10:17:30;96299.69;;;27.85;39.66
62510;BME280;48558;48.242;11.654;2022-08-01T10:44:46;96291.75;;;27.06;41.00
62510;BME280;48558;48.242;11.654;2022-08-01T10:51:05;96280.34;;;29.33;41.84
62510;BME280;48558;48.242;11.654;2022-08-01T11:02:32;96280.69;;;28.43;38.53
62510;BME280;48558;48.242;11.654;2022-08-01T11:15:33;96285.34;;;26.46;39.89
62510;BME280;48558;48.242;11.654;2022-08-01T11:22:00;96225.81;;;26.14;40.21
62510;BME280;48558;48.242;11.654;2022-08-01T11:28:08;96244.16;;;28.23;39.25
62510;BME280;48558;48.242;11.654;2022-08-01T11:34:59;96235.78;;;27.88;38.02
62510;BME280;48558;48.242;11.654;2022-08-01T11:46:14;96232.56;;;29.24;36.24
62510;BME280;48558;48.242;11.654;2022-08-01T11:52:26;96225.44;;;28.39;36.80
62510;BME280;48558;48.242;11.654;2022-08-01T11:58:33;96224.63;;;29.03;35.59
62510;BME280;48558;48.242;11.654;2022-08-01T12:24:54;96212.63;;;29.95;33.63
62510;BME280;48558;48.242;11.654;2022-08-01T12:44:49;96224.19;;;27.77;36.10
62510;BME280;48558;48.242;11.654;2022-08-01T13:11:18;96224.34;;;25.56;41.49
62510;BME280;48558;48.242;11.654;2022-08-01T13:38:06;96185.09;;;25.38;41.02
62510;BME280;48558;48.242;11.654;2022-08-01T13:43:42;96212.88;;;25.71;41.44
62510;BME280;48558;48.242;11.654;2022-08-01T13:49:01;96228.13;;;26.08;40.83
62510;BME280;48558;48.242;11.654;2022-08-01T13:54:17;96215.66;;;25.79;41.41
62510;BME280;48558;48.242;11.654;2022-08-01T13:59:20;96232.53;;;25.77;43.14
62510;BME280;48558;48.242;11.654;2022-08-01T14:04:24;96223.66;;;25.48;44.57
62510;BME280;48558;48.242;11.654;2022-08-01T14:09:27;96223.25;;;25.44;42.00
62510;BME280;48558;48.242;11.654;2022-08-01T14:14:33;96218.22;;;25.35;42.37
62510;BME280;48558;48.242;11.654;2022-08-01T14:19:40;96231.94;;;25.54;42.78
62510;BME280;48558;48.242;11.654;2022-08-01T14:24:48;96230.44;;;25.53;42.76
62510;BME280;48558;48.242;11.654;2022-08-01T14:29:53;96240.72;;;25.33;43.69
62510;BME280;48558;48.242;11.654;2022-08-01T14:35:05;96242.56;;;25.46;46.23
62510;BME280;48558;48.242;11.654;2022-08-01T14:40:09;96249.31;;;25.58;45.83
62510;BME280;48558;48.242;11.654;2022-08-01T14:45:13;96249.47;;;24.88;48.00
62510;BME280;48558;48.242;11.654;2022-08-01T14:50:19;96257.22;;;24.80;50.39
62510;BME280;48558;48.242;11.654;2022-08-01T14:55:25;96244.59;;;24.66;50.65
62510;BME280;48558;48.242;11.654;2022-08-01T15:00:32;96251.66;;;24.04;48.35
62510;BME280;48558;48.242;11.654;2022-08-01T15:05:36;96258.69;;;23.88;50.91
62510;BME280;48558;48.242;11.654;2022-08-01T15:10:39;96267.09;;;23.50;51.77
62510;BME280;48558;48.242;11.654;2022-08-01T15:15:42;96263.97;;;23.18;55.29
62510;BME280;48558;48.242;11.654;2022-08-01T15:20:45;96268.69;;;22.72;58.72
62510;BME280;48558;48.242;11.654;2022-08-01T15:25:49;96266.72;;;22.60;59.36
62510;BME280;48558;48.242;11.654;2022-08-01T15:30:52;96268.38;;;22.83;56.92
62510;BME280;48558;48.242;11.654;2022-08-01T15:35:55;96294.09;;;23.00;58.25
62510;BME280;48558;48.242;11.654;2022-08-01T15:41:02;96290.22;;;21.57;75.64
62510;BME280;48558;48.242;11.654;2022-08-01T15:46:07;96278.47;;;20.99;88.30
62510;BME280;48558;48.242;11.654;2022-08-01T15:51:10;96280.06;;;21.07;98.98
62510;BME280;48558;48.242;11.654;2022-08-01T15:56:14;96269.91;;;20.91;91.77
62510;BME280;48558;48.242;11.654;2022-08-01T16:01:17;96274.03;;;20.24;95.89
62510;BME280;48558;48.242;11.654;2022-08-01T16:06:24;96261.81;;;20.09;96.73
62510;BME280;48558;48.242;11.654;2022-08-01T16:11:27;96273.06;;;20.09;100.00
62510;BME280;48558;48.242;11.654;2022-08-01T16:16:32;96280.22;;;20.36;100.00
62510;BME280;48558;48.242;11.654;2022-08-01T16:47:35;96256.72;;;20.73;81.49
62510;BME280;48558;48.242;11.654;2022-08-01T16:59:42;96216.69;;;20.28;93.32
62510;BME280;48558;48.242;11.654;2022-08-01T17:05:43;96212.78;;;20.17;96.03
62510;BME280;48558;48.242;11.654;2022-08-01T17:10:59;96235.59;;;20.66;92.20
62510;BME280;48558;48.242;11.654;2022-08-01T17:16:47;96221.66;;;20.94;90.30
62510;BME280;48558;48.242;11.654;2022-08-01T17:22:38;96214.34;;;21.12;93.79
62510;BME280;48558;48.242;11.654;2022-08-01T17:28:05;96224.59;;;21.23;86.95
62510;BME280;48558;48.242;11.654;2022-08-01T17:33:09;96239.25;;;21.21;86.18
62510;BME280;48558;48.242;11.654;2022-08-01T17:38:13;96239.28;;;21.08;86.04
62510;BME280;48558;48.242;11.654;2022-08-01T17:43:18;96238.63;;;20.68;88.90
62510;BME280;48558;48.242;11.654;2022-08-01T17:48:21;96237.78;;;20.34;91.60
62510;BME280;48558;48.242;11.654;2022-08-01T17:53:25;96242.53;;;20.13;98.06
62510;BME280;48558;48.242;11.654;2022-08-01T17:58:29;96254.34;;;19.98;100.00
62510;BME280;48558;48.242;11.654;2022-08-01T18:03:52;96260.13;;;19.74;100.00
62510;BME280;48558;48.242;11.654;2022-08-01T18:08:55;96263.34;;;19.65;100.00
62510;BME280;48558;48.242;11.654;2022-08-01T18:14:03;96264.94;;;19.29;100.00
62510;BME280;48558;48.242;11.654;2022-08-01T18:19:06;96267.59;;;19.40;100.00
62510;BME280;48558;48.242;11.654;2022-08-01T18:24:10;96271.19;;;19.53;100.00
62510;BME280;48558;48.242;11.654;2022-08-01T18:29:14;96283.03;;;19.33;100.00
62510;BME280;48558;48.242;11.654;2022-08-01T18:34:37;96280.44;;;19.17;100.00
62510;BME280;48558;48.242;11.654;2022-08-01T18:39:40;96276.25;;;19.05;100.00
62510;BME280;48558;48.242;11.654;2022-08-01T18:44:44;96277.16;;;18.94;100.00
62510;BME280;48558;48.242;11.654;2022-08-01T18:49:47;96276.41;;;18.94;100.00
62510;BME280;48558;48.242;11.654;2022-08-01T18:54:52;96275.41;;;18.91;100.00
62510;BME280;48558;48.242;11.654;2022-08-01T18:59:55;96281.84;;;18.86;100.00
62510;BME280;48558;48.242;11.654;2022-08-01T19:04:58;96296.84;;;18.94;100.00
62510;BME280;48558;48.242;11.654;2022-08-01T19:10:02;96296.66;;;18.87;100.00
62510;BME280;48558;48.242;11.654;2022-08-01T19:15:06;96310.78;;;18.81;100.00
62510;BME280;48558;48.242;11.654;2022-08-01T19:20:10;96323.63;;;18.76;100.00
62510;BME280;48558;48.242;11.654;2022-08-01T19:25:16;96340.28;;;18.69;100.00
62510;BME280;48558;48.242;11.654;2022-08-01T19:30:19;96324.00;;;18.67;100.00
62510;BME280;48558;48.242;11.654;2022-08-01T19:35:23;96302.41;;;18.57;100.00
62510;BME280;48558;48.242;11.654;2022-08-01T19:40:30;96332.00;;;18.58;100.00
62510;BME280;48558;48.242;11.654;2022-08-01T19:45:34;96334.50;;;18.61;100.00
62510;BME280;48558;48.242;11.654;2022-08-01T19:50:39;96338.38;;;18.58;100.00
62510;BME280;48558;48.242;11.654;2022-08-01T19:55:44;96348.88;;;18.76;100.00
62510;BME280;48558;48.242;11.654;2022-08-01T20:00:48;96356.81;;;18.97;100.00
62510;BME280;48558;48.242;11.654;2022-08-01T20:05:51;96370.38;;;19.17;100.00
62510;BME280;48558;48.242;11.654;2022-08-01T20:10:55;96398.50;;;19.11;100.00
62510;BME280;48558;48.242;11.654;2022-08-01T20:16:11;96384.66;;;18.52;100.00
62510;BME280;48558;48.242;11.654;2022-08-01T20:21:15;96366.03;;;18.25;100.00
62510;BME280;48558;48.242;11.654;2022-08-01T20:26:21;96362.59;;;18.07;100.00
62510;BME280;48558;48.242;11.654;2022-08-01T20:31:26;96364.97;;;17.98;100.00
62510;BME280;48558;48.242;11.654;2022-08-01T20:36:45;96339.50;;;17.96;100.00
62510;BME280;48558;48.242;11.654;2022-08-01T20:41:58;96339.50;;;17.96;100.00
62510;BME280;48558;48.242;11.654;2022-08-01T20:47:03;96333.06;;;17.71;100.00
62510;BME280;48558;48.242;11.654;2022-08-01T20:52:09;96336.44;;;17.64;100.00
62510;BME280;48558;48.242;11.654;2022-08-01T20:57:26;96351.59;;;17.50;100.00
62510;BME280;48558;48.242;11.654;2022-08-01T21:07:52;96374.16;;;17.22;100.00
62510;BME280;48558;48.242;11.654;2022-08-01T21:13:07;96377.84;;;17.47;100.00
62510;BME280;48558;48.242;11.654;2022-08-01T21:18:26;96387.97;;;17.56;100.00
62510;BME280;48558;48.242;11.654;2022-08-01T21:23:43;96387.25;;;17.44;100.00
62510;BME280;48558;48.242;11.654;2022-08-01T21:28:50;96405.50;;;17.67;100.00
62510;BME280;48558;48.242;11.654;2022-08-01T21:33:59;96427.75;;;17.89;100.00
62510;BME280;48558;48.242;11.654;2022-08-01T21:39:05;96447.75;;;17.75;100.00
62510;BME280;48558;48.242;11.654;2022-08-01T21:44:10;96459.34;;;17.95;100.00
62510;BME280;48558;48.242;11.654;2022-08-01T21:49:16;96448.22;;;17.79;100.00
62510;BME280;48558;48.242;11.654;2022-08-01T21:54:36;96463.03;;;17.79;100.00
62510;BME280;48558;48.242;11.654;2022-08-01T22:00:01;96462.50;;;17.81;100.00
62510;BME280;48558;48.242;11.654;2022-08-01T22:05:10;96451.81;;;17.79;100.00
62510;BME280;48558;48.242;11.654;2022-08-01T22:10:18;96454.38;;;17.77;100.00
62510;BME280;48558;48.242;11.654;2022-08-01T22:15:24;96441.94;;;17.67;100.00
62510;BME280;48558;48.242;11.654;2022-08-01T22:20:46;96444.97;;;17.69;100.00
62510;BME280;48558;48.242;11.654;2022-08-01T22:25:52;96442.09;;;17.28;100.00
62510;BME280;48558;48.242;11.654;2022-08-01T22:30:56;96433.72;;;17.28;100.00
62510;BME280;48558;48.242;11.654;2022-08-01T22:36:01;96427.25;;;16.93;100.00
62510;BME280;48558;48.242;11.654;2022-08-01T22:41:17;96428.50;;;17.03;100.00
62510;BME280;48558;48.242;11.654;2022-08-01T22:51:51;96432.41;;;16.55;100.00
62510;BME280;48558;48.242;11.654;2022-08-01T22:57:02;96425.81;;;16.31;100.00
62510;BME280;48558;48.242;11.654;2022-08-01T23:02:13;96412.66;;;16.15;100.00
62510;BME280;48558;48.242;11.654;2022-08-01T23:07:22;96422.03;;;16.17;100.00
62510;BME280;48558;48.242;11.654;2022-08-01T23:12:30;96417.72;;;15.99;100.00
62510;BME280;48558;48.242;11.654;2022-08-01T23:17:34;96417.72;;;15.99;100.00
62510;BME280;48558;48.242;11.654;2022-08-01T23:22:40;96410.84;;;15.84;100.00
62510;BME280;48558;48.242;11.654;2022-08-01T23:27:46;96419.50;;;15.91;100.00
62510;BME280;48558;48.242;11.654;2022-08-01T23:33:06;96415.44;;;15.87;100.00
62510;BME280;48558;48.242;11.654;2022-08-01T23:38:12;96412.63;;;15.92;100.00
62510;BME280;48558;48.242;11.654;2022-08-01T23:43:18;96407.31;;;16.06;100.00
62510;BME280;48558;48.242;11.654;2022-08-01T23:48:21;96428.66;;;16.03;100.00
62510;BME280;48558;48.242;11.654;2022-08-01T23:53:26;96419.50;;;15.97;100.00
62510;BME280;48558;48.242;11.654;2022-08-01T23:58:32;96427.13;;;16.02;100.00
